Ana Sayfa
METAR-TAF:

METAR-TAF

Havaalanları :

Thule Hava Üssü

Thule, Grönland

Enlem: 76-32N, Boylam: 068-42W, yükseklik: 77 m

Güncel hava durumu gözlemi

Rapor saat 15:56 UTC de 33 dakika önce yapıldı.
Rüzgar doğu/güneydoğudan 4 kt
Sıcaklık -15°C
Nem 85%
Basınç 1038 hPa
Görüş mesafesi 10 km veya daha fazla
Açık gökyüzü

METAR: BGTL 041556Z AUTO 11004KT 9999 CLR M15/M17 A3066 RMK AO2 SLP373 T11481174 TSNO $

Saat: 13:29 (16:29 UTC)

Tahmin

Rapor saat 14:34 UTC de 1 saat ve 55 dakika önce yapıldı.
Ayın 04'si saat 14 UTC'den ayın 05'si saat 15 UTC'ye kadar geçerli Tahmin
Rüzgar doğu/güneydoğudan 9 kt
Görüş mesafesi: 0609 m
Açık gökyüzü

TAF: BGTL 041434Z 0414/0515 11009KT 9999 SKC QNH3041INS TXM15/0418Z TNM21/0414Z LAST NO AMDS AFT 0414 NEXT 0609

4.000'den fazla havaalanı için hava durumu gözlemleri ve tahminleri (METAR ve TAF raporları).

Kullanılabilir istasyonlar harita üzerinde sarı ve kırmızı noktalarla gösterilir.

İstasyonun adını görmek için fareyi noktanın üzerinde gezdirin.

Sonrasında hava gözlem ve tahminlerini görmek için tıklayın.

Haritayı değiştirmek için: yaklaştırmak için siyah artı işaretli yeşil düğmeye ve uzaklaştırmak için de eksi işaretli düğmeye hızla tıklayın; bitişik haritalar için yeşil okları kullanın.


METAR-TAF: